Time;durP1;ratioP1;P1;durP2;ratioP2;P2;SDS_P1;SDS_P2;PMS_P1;PMS_P2;Temp;Humidity;BMP_temperature;BMP_pressure;BME280_temperature;BME280_humidity;BME280_pressure;Samples;Min_cycle;Max_cycle;Signal;HPM_P1;HPM_P2
2023/08/29 05:28:52;;;;;;;21.90;15.90;;;;;;;23.71;100.00;99498.08;111192;1249;23181;-38
2023/08/29 05:31:19;;;;;;;24.20;16.40;;;;;;;23.86;100.00;99498.72;112932;1249;22833;-38
2023/08/29 05:33:46;;;;;;;22.70;16.30;;;;;;;24.03;100.00;99499.85;112988;1249;22426;-39
2023/08/29 05:36:13;;;;;;;23.40;17.50;;;;;;;24.19;100.00;99496.96;111006;1249;22533;-46
2023/08/29 05:38:41;;;;;;;20.30;17.00;;;;;;;24.34;100.00;99492.95;112685;1249;22399;-38
2023/08/29 05:41:08;;;;;;;30.10;17.30;;;;;;;24.49;100.00;99489.27;112968;1249;22380;-44
2023/08/29 05:43:35;;;;;;;17.80;14.50;;;;;;;24.62;100.00;99488.80;113007;1249;22423;-39
2023/08/29 05:46:02;;;;;;;20.10;16.50;;;;;;;24.78;99.10;99490.35;112563;1248;22534;-39
2023/08/29 05:48:29;;;;;;;20.00;16.10;;;;;;;24.98;98.37;99495.54;112990;1249;22374;-39
2023/08/29 05:50:56;;;;;;;23.90;16.40;;;;;;;25.15;97.08;99501.25;113039;1249;22379;-39
2023/08/29 05:53:23;;;;;;;18.90;15.80;;;;;;;25.32;95.63;99500.74;112324;1249;22662;-39
2023/08/29 05:55:50;;;;;;;20.20;15.80;;;;;;;25.48;94.81;99500.98;110879;1249;22889;-39
2023/08/29 05:58:18;;;;;;;17.50;15.50;;;;;;;25.64;93.55;99502.16;110330;1249;24214;-45
2023/08/29 06:00:45;;;;;;;23.50;15.40;;;;;;;25.76;91.96;99501.12;112986;1249;23260;-40
2023/08/29 06:03:12;;;;;;;20.90;15.10;;;;;;;25.87;90.84;99502.73;112982;1249;22731;-40
2023/08/29 06:05:43;;;;;;;18.60;14.10;;;;;;;26.03;89.78;99501.53;112952;1249;22669;-38
2023/08/29 06:08:11;;;;;;;25.00;14.00;;;;;;;26.19;87.20;99498.17;112992;1248;22422;-38
2023/08/29 06:10:46;;;;;;;18.10;13.80;;;;;;;26.34;84.33;99499.34;112495;1249;22511;-38
2023/08/29 06:13:14;;;;;;;18.30;14.70;;;;;;;26.43;82.93;99502.22;110913;1249;23182;-37
2023/08/29 06:15:41;;;;;;;21.30;15.30;;;;;;;26.55;82.82;99504.09;112970;1249;22354;-44
2023/08/29 06:18:08;;;;;;;25.20;15.10;;;;;;;26.72;82.70;99505.05;110767;1248;23238;-39
2023/08/29 06:20:36;;;;;;;17.80;15.00;;;;;;;26.88;82.27;99503.10;111007;1248;23069;-39
2023/08/29 06:23:03;;;;;;;16.60;13.30;;;;;;;27.04;81.19;99505.25;112990;1249;22399;-38
2023/08/29 06:25:31;;;;;;;24.50;16.10;;;;;;;27.20;80.05;99507.17;112460;1248;22891;-39
2023/08/29 06:27:59;;;;;;;24.90;17.30;;;;;;;27.36;79.83;99506.80;111935;1249;22627;-39
2023/08/29 06:30:29;;;;;;;21.40;15.80;;;;;;;27.48;79.21;99509.77;112686;1249;22420;-38
2023/08/29 06:32:58;;;;;;;21.00;14.80;;;;;;;27.61;77.91;99513.46;112008;1249;23209;-44
2023/08/29 06:35:25;;;;;;;20.00;15.90;;;;;;;27.78;76.67;99516.39;112083;1248;22507;-49
2023/08/29 06:37:55;;;;;;;19.90;15.50;;;;;;;27.95;75.47;99513.19;112339;1249;23292;-44
2023/08/29 06:40:22;;;;;;;19.60;14.80;;;;;;;28.10;74.72;99514.92;112629;1249;22509;-47
2023/08/29 06:42:49;;;;;;;26.10;17.10;;;;;;;28.24;73.28;99513.71;110508;1249;22635;-45
2023/08/29 06:45:17;;;;;;;19.40;15.60;;;;;;;28.31;72.25;99511.85;110822;1249;22512;-44
2023/08/29 06:47:44;;;;;;;25.30;16.70;;;;;;;28.39;72.23;99513.91;110475;1249;22595;-46
2023/08/29 06:50:12;;;;;;;21.60;16.50;;;;;;;28.50;72.11;99517.59;111597;1249;23145;-45
2023/08/29 06:52:39;;;;;;;28.50;17.80;;;;;;;28.64;71.35;99516.36;113004;1249;22383;-39
2023/08/29 06:55:06;;;;;;;25.70;16.20;;;;;;;28.75;70.29;99515.29;112392;1249;22412;-39
2023/08/29 06:57:33;;;;;;;23.00;15.90;;;;;;;28.80;69.74;99514.05;112253;1248;22452;-38
2023/08/29 07:00:00;;;;;;;24.70;16.10;;;;;;;28.89;69.72;99508.84;112235;1249;22430;-45
2023/08/29 07:02:27;;;;;;;21.50;16.00;;;;;;;28.98;69.02;99503.94;111643;1249;22510;-38
2023/08/29 07:04:55;;;;;;;21.00;15.70;;;;;;;29.06;68.68;99499.58;111638;1249;22580;-40
2023/08/29 07:07:22;;;;;;;22.70;15.20;;;;;;;29.19;68.32;99498.83;112997;1249;22350;-39
2023/08/29 07:09:49;;;;;;;20.30;15.50;;;;;;;29.33;68.17;99499.69;112863;1249;22432;-38
2023/08/29 07:12:16;;;;;;;18.80;15.60;;;;;;;29.48;67.55;99499.01;112220;1249;22337;-39
2023/08/29 07:14:45;;;;;;;23.40;15.50;;;;;;;29.63;67.26;99497.19;113002;1249;22372;-39
2023/08/29 07:17:12;;;;;;;20.60;15.10;;;;;;;29.70;65.89;99502.61;113012;1249;23255;-45
2023/08/29 07:19:39;;;;;;;17.60;14.70;;;;;;;29.79;65.55;99498.79;112955;1249;22660;-45
2023/08/29 07:22:06;;;;;;;18.10;13.80;;;;;;;29.90;65.02;99500.56;112922;1241;22147;-45
2023/08/29 07:24:53;;;;;;;17.00;13.30;;;;;;;30.03;63.53;99499.77;112251;1249;23299;-38
2023/08/29 07:27:20;;;;;;;18.10;12.20;;;;;;;30.14;63.02;99501.38;112839;1249;22414;-39
2023/08/29 07:29:48;;;;;;;18.70;12.00;;;;;;;30.25;61.62;99502.58;112880;1249;22370;-39
2023/08/29 07:32:15;;;;;;;19.60;13.90;;;;;;;30.33;61.17;99499.30;112979;1249;23039;-39
2023/08/29 07:34:42;;;;;;;18.70;12.80;;;;;;;30.39;60.84;99500.70;112949;1249;22404;-49
2023/08/29 07:37:09;;;;;;;20.80;12.20;;;;;;;30.48;60.68;99500.02;112973;1249;22761;-40
2023/08/29 07:39:36;;;;;;;18.90;12.20;;;;;;;30.58;60.23;99499.94;112957;1249;22392;-46
2023/08/29 07:42:03;;;;;;;21.70;12.70;;;;;;;30.70;59.51;99494.45;112978;1249;22368;-39
2023/08/29 07:44:31;;;;;;;16.50;11.30;;;;;;;30.82;59.14;99493.52;112857;1248;23372;-40
2023/08/29 07:46:58;;;;;;;14.80;11.60;;;;;;;30.94;58.35;99492.55;112954;1249;22372;-39
2023/08/29 07:49:42;;;;;;;16.40;10.20;;;;;;;31.03;57.41;99497.80;112851;1249;163782;-39
2023/08/29 07:52:09;;;;;;;14.40;10.00;;;;;;;31.09;57.36;99498.95;112868;1249;22957;-46
2023/08/29 07:54:36;;;;;;;16.60;10.30;;;;;;;31.18;56.95;99498.98;112946;1249;22582;-44
2023/08/29 07:57:03;;;;;;;14.30;9.40;;;;;;;31.27;55.81;99500.27;112444;1249;22537;-44
2023/08/29 07:59:31;;;;;;;17.30;10.30;;;;;;;31.36;55.39;99501.41;112707;1248;22452;-45
2023/08/29 08:01:58;;;;;;;16.20;11.60;;;;;;;31.40;55.46;99500.08;112430;1249;22870;-45
2023/08/29 08:04:25;;;;;;;18.10;11.40;;;;;;;31.44;55.56;99498.05;112828;1249;22967;-44
2023/08/29 08:06:52;;;;;;;13.20;10.50;;;;;;;31.52;55.34;99497.03;112961;1248;22364;-45
2023/08/29 08:09:19;;;;;;;13.50;11.60;;;;;;;31.58;55.28;99499.52;112950;1249;22348;-45
2023/08/29 08:11:46;;;;;;;14.60;11.30;;;;;;;31.67;55.39;99493.27;111544;1249;22459;-39
2023/08/29 08:14:13;;;;;;;15.50;11.70;;;;;;;31.80;54.80;99487.42;112159;1248;22594;-44
2023/08/29 08:16:40;;;;;;;18.20;10.80;;;;;;;31.87;54.67;99488.34;113031;1248;22173;-45
2023/08/29 08:19:09;;;;;;;12.90;10.70;;;;;;;31.93;54.72;99493.36;112962;1249;22390;-38
2023/08/29 08:21:36;;;;;;;15.60;11.50;;;;;;;32.01;55.04;99492.21;112873;1249;22367;-40
2023/08/29 08:24:07;;;;;;;13.10;10.40;;;;;;;32.07;54.78;99492.23;112892;1248;22906;-38
2023/08/29 08:26:34;;;;;;;17.10;10.50;;;;;;;32.14;54.76;99492.23;112966;1248;22730;-38
2023/08/29 08:29:03;;;;;;;11.50;9.80;;;;;;;32.21;54.16;99489.05;112930;1241;22351;-39
2023/08/29 08:31:31;;;;;;;13.10;9.40;;;;;;;32.27;53.38;99483.70;112579;1249;22463;-38
2023/08/29 08:33:58;;;;;;;11.70;8.80;;;;;;;32.32;52.00;99481.02;112912;1248;23190;-39
2023/08/29 08:36:25;;;;;;;14.90;9.10;;;;;;;32.32;50.15;99478.31;112964;1248;22575;-38
2023/08/29 08:38:52;;;;;;;18.30;9.20;;;;;;;32.39;50.31;99476.72;112964;1249;23024;-40
2023/08/29 08:41:19;;;;;;;19.40;9.90;;;;;;;32.49;50.76;99477.47;112989;1249;23106;-39
2023/08/29 08:43:46;;;;;;;10.50;9.20;;;;;;;32.61;50.73;99475.13;112800;1248;25408;-38
2023/08/29 08:46:16;;;;;;;14.50;9.60;;;;;;;32.72;50.35;99473.40;112764;1249;22943;-39
2023/08/29 08:48:43;;;;;;;14.30;9.60;;;;;;;32.81;49.91;99465.08;112701;1248;22687;-39
2023/08/29 08:51:10;;;;;;;12.70;9.30;;;;;;;32.89;49.93;99464.21;112863;1249;22436;-45
2023/08/29 08:53:38;;;;;;;15.20;10.30;;;;;;;32.98;50.38;99462.23;112881;1248;22341;-39
2023/08/29 08:56:05;;;;;;;19.70;9.80;;;;;;;33.05;50.18;99459.25;112721;1249;23335;-38
2023/08/29 08:58:32;;;;;;;16.10;10.10;;;;;;;33.10;49.64;99458.16;112965;1249;22395;-40
2023/08/29 09:00:58;;;;;;;21.00;10.20;;;;;;;33.06;49.30;99457.15;112800;1249;22329;-38
2023/08/29 09:03:26;;;;;;;15.30;10.70;;;;;;;32.99;49.51;99458.88;113018;1249;22433;-44
2023/08/29 09:05:53;;;;;;;21.30;9.80;;;;;;;32.92;49.52;99462.55;111992;1248;22504;-38
2023/08/29 09:08:21;;;;;;;22.10;11.10;;;;;;;32.86;49.30;99458.56;111029;1234;22523;-45
2023/08/29 09:10:48;;;;;;;14.30;10.60;;;;;;;32.90;50.04;99458.40;111007;1248;25373;-46
2023/08/29 09:13:16;;;;;;;17.90;10.70;;;;;;;32.97;50.13;99460.48;109838;1249;24736;-45
2023/08/29 09:15:45;;;;;;;16.60;10.80;;;;;;;33.04;50.08;99461.17;110614;1248;25397;-44
2023/08/29 09:18:15;;;;;;;16.80;10.20;;;;;;;33.02;49.09;99459.64;113025;1248;22956;-45
2023/08/29 09:20:43;;;;;;;21.20;10.70;;;;;;;32.96;49.40;99458.64;113012;1248;22526;-50
2023/08/29 09:23:37;;;;;;;15.10;9.70;;;;;;;32.97;49.61;99461.45;112453;1249;25383;-39
2023/08/29 09:26:04;;;;;;;13.20;10.00;;;;;;;33.03;49.70;99462.99;110726;1248;23209;-38
2023/08/29 09:28:31;;;;;;;17.50;10.50;;;;;;;33.09;50.02;99460.64;112878;1248;22574;-44
2023/08/29 09:31:05;;;;;;;13.50;10.10;;;;;;;33.17;49.44;99461.84;111504;1249;22410;-39
2023/08/29 09:33:33;;;;;;;11.70;9.60;;;;;;;33.25;48.88;99458.52;113000;1248;23171;-39
2023/08/29 09:36:01;;;;;;;12.10;10.00;;;;;;;33.27;48.55;99465.80;113059;1248;22403;-40
2023/08/29 09:38:32;;;;;;;15.70;9.70;;;;;;;33.26;48.22;99472.33;112996;1249;22388;-45
2023/08/29 09:40:59;;;;;;;14.60;10.40;;;;;;;33.34;48.14;99470.95;111542;1248;22507;-47
2023/08/29 09:43:29;;;;;;;19.00;9.60;;;;;;;33.40;47.93;99474.90;112987;1249;22360;-45
2023/08/29 09:45:56;;;;;;;12.40;9.60;;;;;;;33.33;47.99;99473.61;111990;1249;22494;-45
2023/08/29 09:48:24;;;;;;;17.20;9.90;;;;;;;33.23;47.82;99470.51;112297;1249;22857;-44
2023/08/29 09:50:51;;;;;;;14.70;9.00;;;;;;;33.11;48.01;99469.15;113002;1248;22367;-46
2023/08/29 09:53:19;;;;;;;17.00;9.60;;;;;;;32.99;48.37;99466.14;112956;1249;22365;-44
2023/08/29 09:55:48;;;;;;;14.00;8.90;;;;;;;32.90;48.81;99461.23;112954;1249;22479;-40
2023/08/29 09:58:15;;;;;;;11.00;8.60;;;;;;;32.89;48.71;99460.84;113016;1249;22924;-39
2023/08/29 10:00:43;;;;;;;11.60;8.80;;;;;;;32.95;48.66;99460.41;112961;1249;22530;-38
2023/08/29 10:03:10;;;;;;;18.20;10.30;;;;;;;33.00;48.27;99467.79;112148;1249;23084;-41
2023/08/29 10:05:43;;;;;;;12.80;9.20;;;;;;;32.99;47.85;99466.40;112883;1248;22495;-45
2023/08/29 10:08:25;;;;;;;12.60;8.80;;;;;;;32.96;47.82;99464.23;112954;1249;22605;-46
2023/08/29 10:10:55;;;;;;;16.60;9.20;;;;;;;32.90;48.25;99461.86;112252;1249;22591;-46
2023/08/29 10:13:22;;;;;;;14.70;9.30;;;;;;;32.82;48.45;99457.90;112835;1249;22432;-39
2023/08/29 10:15:49;;;;;;;17.80;9.40;;;;;;;32.77;48.38;99458.48;112815;1249;22423;-39
2023/08/29 10:18:16;;;;;;;12.30;9.60;;;;;;;32.69;48.27;99460.35;111116;1249;22497;-38
2023/08/29 10:20:44;;;;;;;14.00;9.30;;;;;;;32.67;48.42;99465.89;109874;1249;22539;-40
2023/08/29 10:23:13;;;;;;;10.40;8.70;;;;;;;32.82;48.32;99466.78;112262;1249;23232;-40
2023/08/29 10:25:41;;;;;;;14.90;9.80;;;;;;;33.01;47.92;99470.77;112687;1248;23697;-45
2023/08/29 10:28:09;;;;;;;16.10;10.20;;;;;;;33.11;47.33;99468.23;111075;1235;22534;-38
2023/08/29 10:30:39;;;;;;;14.30;9.70;;;;;;;33.26;47.26;99465.66;110671;1249;24193;-45
2023/08/29 10:33:06;;;;;;;13.80;9.30;;;;;;;33.59;46.69;99465.60;111245;1249;22489;-46
2023/08/29 10:35:33;;;;;;;11.40;10.20;;;;;;;33.94;45.51;99464.58;111746;1248;22411;-39
2023/08/29 10:38:00;;;;;;;14.20;10.10;;;;;;;34.29;44.34;99463.45;112323;1249;22432;-45
2023/08/29 10:40:35;;;;;;;11.00;9.60;;;;;;;34.64;43.97;99460.16;111681;1249;24462;-46
2023/08/29 10:43:03;;;;;;;14.00;9.60;;;;;;;35.05;42.84;99458.82;110527;1249;22514;-45
2023/08/29 10:45:50;;;;;;;10.00;9.00;;;;;;;35.40;41.84;99458.54;110528;1248;22525;-39
2023/08/29 10:48:39;;;;;;;19.60;9.70;;;;;;;35.81;41.09;99463.10;110531;1234;25487;-39
2023/08/29 10:51:11;;;;;;;11.70;9.20;;;;;;;36.26;40.07;99459.92;112378;1249;22446;-39
2023/08/29 10:53:45;;;;;;;20.70;8.60;;;;;;;36.73;39.22;99456.57;113060;1248;22383;-45
2023/08/29 10:56:13;;;;;;;11.70;8.80;;;;;;;37.17;38.40;99454.48;113035;1248;22453;-45
2023/08/29 10:58:42;;;;;;;11.90;8.40;;;;;;;37.50;37.14;99457.35;111461;1249;25342;-40
2023/08/29 11:01:36;;;;;;;10.90;8.40;;;;;;;37.71;36.21;99455.59;110313;1249;22580;-46
2023/08/29 11:04:13;;;;;;;9.40;7.90;;;;;;;37.96;35.60;99456.80;110499;1249;25335;-39
2023/08/29 11:06:56;;;;;;;18.70;8.60;;;;;;;38.18;35.13;99458.96;110322;1248;22626;-39
2023/08/29 11:09:24;;;;;;;12.80;8.10;;;;;;;38.28;34.98;99454.65;110853;1249;22510;-43
2023/08/29 11:12:08;;;;;;;13.50;8.30;;;;;;;38.19;35.08;99455.83;110414;1245;24239;-44
2023/08/29 11:14:57;;;;;;;10.60;8.30;;;;;;;37.96;35.35;99454.54;110068;1249;22523;-43
2023/08/29 11:17:25;;;;;;;12.70;8.60;;;;;;;37.54;35.52;99459.33;110197;1249;22516;-39
2023/08/29 11:19:53;;;;;;;12.20;9.00;;;;;;;37.05;36.12;99456.89;110335;1249;22499;-38
2023/08/29 11:22:25;;;;;;;13.80;8.20;;;;;;;36.58;36.91;99458.95;110384;1249;22515;-45
2023/08/29 11:24:54;;;;;;;9.20;8.30;;;;;;;36.18;37.77;99465.41;110016;1249;24707;-39
2023/08/29 11:27:24;;;;;;;10.70;9.00;;;;;;;35.89;38.43;99466.02;110480;1249;25167;-47
2023/08/29 11:29:55;;;;;;;12.20;8.40;;;;;;;35.61;38.88;99464.39;110246;1249;25300;-45
2023/08/29 11:32:38;;;;;;;14.20;8.70;;;;;;;35.29;39.66;99465.48;110211;1249;24335;-45
2023/08/29 11:35:05;;;;;;;13.60;9.50;;;;;;;35.04;40.27;99461.25;110440;1249;22583;-40
2023/08/29 11:37:33;;;;;;;14.10;9.80;;;;;;;34.89;40.32;99458.68;110076;1249;22550;-45
2023/08/29 11:40:04;;;;;;;14.90;9.40;;;;;;;34.70;40.41;99457.73;111019;1249;22511;-44
2023/08/29 11:42:36;;;;;;;14.40;8.70;;;;;;;34.61;40.59;99456.32;110147;1249;22541;-46
2023/08/29 11:45:25;;;;;;;12.60;9.00;;;;;;;34.65;40.58;99455.73;110195;1249;22509;-38
2023/08/29 11:48:13;;;;;;;20.90;9.10;;;;;;;34.64;40.65;99458.39;110299;1248;22573;-45
2023/08/29 11:50:40;;;;;;;15.10;9.30;;;;;;;34.55;40.76;99459.98;110552;1248;22490;-44
2023/08/29 11:53:07;;;;;;;12.00;9.70;;;;;;;34.46;41.09;99458.16;113046;1249;22402;-43
2023/08/29 11:55:34;;;;;;;14.30;9.40;;;;;;;34.40;40.84;99457.88;113039;1248;22399;-44
2023/08/29 11:58:01;;;;;;;11.50;9.50;;;;;;;34.37;40.55;99454.35;112883;1249;22454;-38
2023/08/29 12:00:28;;;;;;;11.50;10.10;;;;;;;34.40;41.01;99451.14;112572;1249;23250;-44
2023/08/29 12:02:56;;;;;;;16.10;10.20;;;;;;;34.50;40.40;99452.05;110270;1249;22523;-38
2023/08/29 12:05:23;;;;;;;19.30;8.30;;;;;;;34.62;40.38;99449.05;110383;1249;22548;-44
2023/08/29 12:07:51;;;;;;;13.00;9.80;;;;;;;34.74;40.19;99444.02;110030;1249;24185;-44
2023/08/29 12:10:19;;;;;;;16.80;9.20;;;;;;;34.84;40.09;99442.48;110567;1248;25456;-44
2023/08/29 12:12:46;;;;;;;19.60;9.80;;;;;;;34.90;39.78;99442.51;113085;1249;22379;-39
2023/08/29 12:15:17;;;;;;;20.10;9.60;;;;;;;34.88;39.86;99443.11;110964;1249;23884;-38
2023/08/29 12:17:57;;;;;;;14.90;9.70;;;;;;;34.87;39.79;99442.17;111117;1249;22505;-45
2023/08/29 12:20:29;;;;;;;15.20;9.60;;;;;;;34.87;40.12;99442.39;111439;1233;24163;-38
2023/08/29 12:22:56;;;;;;;;;;;;;;;34.86;39.92;99443.38;110344;1249;22485;-43
2023/08/29 16:52:20;;;;;;;15.70;11.70;;;;;;;29.66;53.43;99479.82;111643;1249;22457;-44
2023/08/29 16:54:47;;;;;;;18.60;11.90;;;;;;;29.58;53.85;99478.71;112035;1248;23112;-53
2023/08/29 16:57:14;;;;;;;16.20;11.60;;;;;;;29.51;54.07;99480.33;113037;1249;22367;-53
2023/08/29 16:59:58;;;;;;;14.70;11.90;;;;;;;29.43;54.54;99483.70;113034;1249;22410;-54
